Time;durP1;ratioP1;P1;durP2;ratioP2;P2;SDS_P1;SDS_P2;PMS_P1;PMS_P2;Temp;Humidity;BMP_temperature;BMP_pressure;BME280_temperature;BME280_humidity;BME280_pressure;Samples;Min_cycle;Max_cycle;Signal;HPM_P1;HPM_P2
2022/01/13 00:03:41;;;;;;;34.97;31.37;;;2.40;99.90;;;;;;10440647;28;20933;-82
2022/01/13 00:08:43;;;;;;;32.13;28.77;;;2.50;99.90;;;;;;10434348;28;20243;-82
2022/01/13 00:13:49;;;;;;;35.03;30.53;;;2.50;99.90;;;;;;10465652;28;20197;-82
2022/01/13 00:19:05;;;;;;;34.50;30.50;;;2.60;99.90;;;;;;10452950;28;20262;-82
2022/01/13 00:24:12;;;;;;;38.50;31.50;;;2.60;99.90;;;;;;10495743;28;20184;-82
2022/01/13 00:29:20;;;;;;;34.37;30.77;;;2.70;99.90;;;;;;10450186;28;20769;-82
2022/01/13 00:34:23;;;;;;;34.97;31.17;;;2.70;99.90;;;;;;10462468;28;20201;-81
2022/01/13 00:39:26;;;;;;;35.60;30.80;;;2.90;99.90;;;;;;10478123;28;20314;-81
2022/01/13 00:44:34;;;;;;;32.20;28.70;;;3.00;99.90;;;;;;10458410;28;20199;-82
2022/01/13 00:49:38;;;;;;;34.00;30.00;;;3.10;99.90;;;;;;10447878;28;20193;-81
2022/01/13 00:54:41;;;;;;;34.40;30.70;;;3.10;99.90;;;;;;10457017;28;20216;-82
2022/01/13 00:59:43;;;;;;;34.17;30.33;;;3.10;99.90;;;;;;10479566;28;20283;-82
2022/01/13 01:04:46;;;;;;;35.00;31.37;;;3.20;99.90;;;;;;10459054;28;20196;-82
2022/01/13 01:09:50;;;;;;;36.40;32.47;;;3.20;99.90;;;;;;10424100;28;20212;-82
2022/01/13 01:14:57;;;;;;;33.77;29.87;;;3.20;99.90;;;;;;10498586;28;20213;-82
2022/01/13 01:20:06;;;;;;;35.63;31.63;;;3.10;99.90;;;;;;10468376;28;20200;-82
2022/01/13 01:30:34;;;;;;;34.00;30.50;;;3.10;99.90;;;;;;10451696;28;20191;-82
2022/01/13 01:35:38;;;;;;;34.30;30.63;;;3.10;99.90;;;;;;10441328;28;20221;-83
2022/01/13 01:40:40;;;;;;;33.60;30.10;;;3.10;99.90;;;;;;10445684;28;20204;-82
2022/01/13 01:45:44;;;;;;;36.00;31.27;;;3.00;99.90;;;;;;10474282;28;20701;-82
2022/01/13 01:50:55;;;;;;;31.70;28.27;;;3.00;99.90;;;;;;10443462;28;20200;-81
2022/01/13 01:55:57;;;;;;;34.03;30.43;;;3.00;99.90;;;;;;10437257;28;20217;-83
2022/01/13 02:01:00;;;;;;;34.00;30.23;;;3.00;99.90;;;;;;10440050;28;20645;-80
2022/01/13 02:06:05;;;;;;;33.77;30.20;;;3.10;99.90;;;;;;10449061;28;20232;-81
2022/01/13 02:11:07;;;;;;;32.37;29.03;;;3.10;99.90;;;;;;10485994;28;20197;-82
2022/01/13 02:16:25;;;;;;;33.97;29.67;;;3.20;99.90;;;;;;10430304;28;20839;-81
2022/01/13 02:21:29;;;;;;;34.40;30.70;;;3.10;99.90;;;;;;10448094;28;20231;-83
2022/01/13 02:26:31;;;;;;;34.13;30.47;;;3.10;99.90;;;;;;10447433;28;20217;-81
2022/01/13 02:31:33;;;;;;;33.90;30.17;;;3.10;99.90;;;;;;10448912;28;20185;-82
2022/01/13 02:36:38;;;;;;;33.63;30.03;;;3.10;99.90;;;;;;10470643;28;20220;-81
2022/01/13 02:41:40;;;;;;;31.70;28.30;;;3.20;99.90;;;;;;10485340;28;20583;-83
2022/01/13 02:52:00;;;;;;;32.70;29.10;;;3.20;99.90;;;;;;10444449;28;20676;-82
2022/01/13 02:57:02;;;;;;;33.27;29.80;;;3.30;99.90;;;;;;10489600;28;20659;-82
2022/01/13 03:02:04;;;;;;;33.00;29.50;;;3.30;99.90;;;;;;10473013;28;20196;-81
2022/01/13 03:07:07;;;;;;;33.60;30.10;;;3.30;99.90;;;;;;10483082;28;20981;-84
2022/01/13 03:12:10;;;;;;;31.83;28.53;;;3.30;99.90;;;;;;10507665;28;20280;-83
2022/01/13 03:17:12;;;;;;;34.17;28.37;;;3.30;99.90;;;;;;10470445;28;20716;-83
2022/01/13 03:22:15;;;;;;;33.60;30.00;;;3.30;99.90;;;;;;10433371;28;20213;-84
2022/01/13 03:27:22;;;;;;;32.53;29.10;;;3.30;99.90;;;;;;10451944;28;20220;-82
2022/01/13 03:32:24;;;;;;;32.27;29.07;;;3.30;99.90;;;;;;10475652;28;20218;-81
2022/01/13 03:37:29;;;;;;;32.13;28.73;;;3.40;99.90;;;;;;10508201;28;20220;-81
2022/01/13 03:42:31;;;;;;;32.53;29.13;;;3.40;99.90;;;;;;10467505;28;20200;-83
2022/01/13 03:47:34;;;;;;;32.53;27.80;;;3.40;99.90;;;;;;10488732;28;20240;-82
2022/01/13 03:53:30;;;;;;;31.00;27.80;;;3.40;99.90;;;;;;10483918;28;20220;-82
2022/01/13 03:59:31;;;;;;;31.47;28.03;;;3.40;99.90;;;;;;10458903;28;20217;-83
2022/01/13 04:04:36;;;;;;;31.93;28.63;;;3.40;99.90;;;;;;10472445;28;20196;-81
2022/01/13 04:10:14;;;;;;;31.50;28.10;;;3.40;99.90;;;;;;10463586;28;20704;-83
2022/01/13 04:15:18;;;;;;;29.87;26.87;;;3.50;99.90;;;;;;10419597;28;20309;-81
2022/01/13 04:20:21;;;;;;;31.87;28.50;;;3.50;99.90;;;;;;10489973;28;20204;-83
2022/01/13 04:25:23;;;;;;;29.53;26.07;;;3.60;99.90;;;;;;10479222;28;20227;-80
2022/01/13 04:35:51;;;;;;;31.77;28.50;;;3.70;99.90;;;;;;10469730;28;20216;-83
2022/01/13 04:40:59;;;;;;;31.10;27.80;;;3.60;99.90;;;;;;10478918;28;20208;-80
2022/01/13 04:46:01;;;;;;;31.83;28.37;;;3.60;99.90;;;;;;10478864;28;20220;-81
2022/01/13 04:51:04;;;;;;;29.53;26.43;;;3.50;99.90;;;;;;10443658;28;20723;-83
2022/01/13 04:56:11;;;;;;;30.10;26.87;;;3.40;99.90;;;;;;10455845;28;20218;-82
2022/01/13 05:01:13;;;;;;;31.13;27.17;;;3.40;99.90;;;;;;10437278;28;20200;-81
2022/01/13 05:06:17;;;;;;;28.50;25.70;;;3.50;99.90;;;;;;10460200;28;20240;-81
2022/01/13 05:11:20;;;;;;;29.10;26.10;;;3.50;99.90;;;;;;10484167;28;20231;-82
2022/01/13 05:16:27;;;;;;;28.43;25.53;;;3.50;99.90;;;;;;10485052;28;20216;-82
2022/01/13 05:21:46;;;;;;;28.60;25.50;;;3.50;99.90;;;;;;10459648;28;20247;-83
2022/01/13 05:26:48;;;;;;;26.90;24.10;;;3.50;99.90;;;;;;10443113;28;20216;-83
2022/01/13 05:31:51;;;;;;;30.33;26.97;;;3.50;99.90;;;;;;10445649;28;20280;-84
2022/01/13 05:36:54;;;;;;;28.73;25.63;;;3.50;99.90;;;;;;10431153;28;20311;-84
2022/01/13 05:41:56;;;;;;;29.50;26.37;;;3.60;99.90;;;;;;10452179;28;20639;-84
2022/01/13 05:46:58;;;;;;;28.57;25.57;;;3.60;99.90;;;;;;10466671;28;20586;-82
2022/01/13 05:52:02;;;;;;;29.07;26.17;;;3.60;99.90;;;;;;10465787;28;20193;-83
2022/01/13 05:57:05;;;;;;;29.90;26.77;;;3.70;99.90;;;;;;10491766;28;20303;-83
2022/01/13 06:02:07;;;;;;;28.40;25.43;;;3.60;99.90;;;;;;10488465;28;20320;-84
2022/01/13 06:07:11;;;;;;;24.80;22.27;;;3.60;99.90;;;;;;10472811;28;20220;-83
2022/01/13 06:12:13;;;;;;;27.80;24.90;;;3.60;99.90;;;;;;10472686;28;20193;-82
2022/01/13 06:17:15;;;;;;;27.77;24.83;;;3.50;99.90;;;;;;10473781;28;20265;-83
2022/01/13 06:22:18;;;;;;;27.37;24.40;;;3.50;99.90;;;;;;10466886;28;20608;-82
2022/01/13 06:27:22;;;;;;;29.03;25.93;;;3.50;99.90;;;;;;10471415;28;20225;-82
2022/01/13 06:32:25;;;;;;;28.77;25.67;;;3.50;99.90;;;;;;10490415;28;20204;-81
2022/01/13 06:37:28;;;;;;;28.70;25.90;;;3.50;99.90;;;;;;10474987;28;20236;-81
2022/01/13 06:42:30;;;;;;;26.77;23.97;;;3.60;99.90;;;;;;10477041;28;20200;-80
2022/01/13 06:47:33;;;;;;;28.83;25.23;;;3.60;99.90;;;;;;10473352;28;20661;-80
2022/01/13 06:52:36;;;;;;;27.77;24.90;;;3.50;99.90;;;;;;10485208;28;20212;-81
2022/01/13 06:57:38;;;;;;;26.00;23.30;;;3.50;99.90;;;;;;10476791;28;20697;-81
2022/01/13 07:02:40;;;;;;;28.27;25.13;;;3.50;99.90;;;;;;10474665;28;20211;-79
2022/01/13 07:07:45;;;;;;;27.43;24.67;;;3.40;99.90;;;;;;10503591;28;20244;-80
2022/01/13 07:12:48;;;;;;;28.37;25.40;;;3.40;99.90;;;;;;10452075;28;20220;-81
2022/01/13 07:17:50;;;;;;;28.50;25.50;;;3.30;99.90;;;;;;10476524;28;20209;-81
2022/01/13 07:22:54;;;;;;;28.07;25.23;;;3.30;99.90;;;;;;10506376;28;20193;-80
2022/01/13 07:27:56;;;;;;;29.40;26.30;;;3.30;99.90;;;;;;10493803;28;20232;-80
2022/01/13 07:32:58;;;;;;;28.40;25.50;;;3.30;99.90;;;;;;10461594;28;20193;-80
2022/01/13 07:38:02;;;;;;;27.50;24.70;;;3.40;99.90;;;;;;10488697;28;20653;-80
2022/01/13 07:43:04;;;;;;;26.93;24.13;;;3.40;99.90;;;;;;10476539;28;20232;-80
2022/01/13 07:48:06;;;;;;;28.07;25.10;;;3.30;99.90;;;;;;10484533;28;20248;-79
2022/01/13 07:53:10;;;;;;;28.90;26.10;;;3.00;99.90;;;;;;10477689;28;20197;-79
2022/01/13 07:58:12;;;;;;;28.83;25.83;;;2.70;99.90;;;;;;10485573;28;20213;-79
2022/01/13 08:03:14;;;;;;;31.83;27.43;;;2.60;99.90;;;;;;10454528;28;20283;-79
2022/01/13 08:08:18;;;;;;;30.40;27.13;;;2.50;99.90;;;;;;10467785;28;20227;-79
2022/01/13 08:13:20;;;;;;;29.63;25.30;;;2.60;99.90;;;;;;10454258;28;20193;-79
2022/01/13 08:23:44;;;;;;;28.90;24.90;;;2.60;99.90;;;;;;10461839;28;20199;-79
2022/01/13 08:28:46;;;;;;;24.67;22.00;;;2.60;99.90;;;;;;10448024;28;20312;-79
2022/01/13 08:33:48;;;;;;;24.90;22.33;;;2.60;99.90;;;;;;10457845;28;20726;-79
2022/01/13 08:38:52;;;;;;;27.53;22.73;;;2.70;99.90;;;;;;10472868;28;20274;-79
2022/01/13 08:43:55;;;;;;;27.03;24.13;;;2.90;99.90;;;;;;10448593;28;20542;-80
2022/01/13 08:48:57;;;;;;;23.30;20.80;;;3.10;99.90;;;;;;10470646;28;20226;-79
2022/01/13 08:54:01;;;;;;;23.87;21.20;;;3.30;99.90;;;;;;10461675;28;20193;-79
2022/01/13 08:59:03;;;;;;;23.60;21.10;;;3.40;99.90;;;;;;10449152;28;20209;-79
2022/01/13 09:04:05;;;;;;;25.63;22.90;;;3.50;99.90;;;;;;10452808;28;20207;-79
2022/01/13 09:09:09;;;;;;;24.70;22.10;;;3.50;99.90;;;;;;10485206;28;20228;-79
2022/01/13 09:14:11;;;;;;;24.07;21.33;;;3.60;99.90;;;;;;10469816;28;20200;-79
2022/01/13 09:19:17;;;;;;;24.13;20.40;;;3.70;99.90;;;;;;10471921;28;20212;-79
2022/01/13 09:24:21;;;;;;;22.83;19.67;;;3.70;99.90;;;;;;10481211;28;20242;-79
2022/01/13 09:29:24;;;;;;;22.70;19.50;;;3.80;99.90;;;;;;10467950;28;20225;-79
2022/01/13 09:34:26;;;;;;;23.20;20.80;;;3.80;99.90;;;;;;10468761;28;20246;-80
2022/01/13 09:39:29;;;;;;;24.60;21.90;;;3.80;99.90;;;;;;10468812;28;20244;-79
2022/01/13 09:44:32;;;;;;;25.77;22.93;;;3.90;99.90;;;;;;10450283;28;20280;-80
2022/01/13 09:49:35;;;;;;;22.00;19.70;;;3.80;99.90;;;;;;10472824;28;20232;-79
2022/01/13 09:54:39;;;;;;;25.23;22.43;;;3.70;99.90;;;;;;10486666;28;20572;-79
2022/01/13 09:59:41;;;;;;;24.50;21.90;;;3.60;99.90;;;;;;10483510;28;20220;-79
2022/01/13 10:04:48;;;;;;;27.13;22.17;;;3.50;99.90;;;;;;10457827;28;20213;-79
2022/01/13 10:09:59;;;;;;;20.30;18.30;;;3.60;99.90;;;;;;10451332;28;20581;-80
2022/01/13 10:20:33;;;;;;;22.77;20.47;;;3.70;99.90;;;;;;10425912;28;20193;-79
2022/01/13 10:25:38;;;;;;;23.33;21.03;;;3.80;99.90;;;;;;10463888;28;20803;-79
2022/01/13 10:30:41;;;;;;;22.37;20.00;;;3.90;99.90;;;;;;10491136;28;20303;-80
2022/01/13 10:35:43;;;;;;;22.73;20.30;;;4.00;99.90;;;;;;10477202;28;20275;-80
2022/01/13 10:40:49;;;;;;;21.77;19.47;;;3.90;99.90;;;;;;10463545;28;20201;-79
2022/01/13 10:45:55;;;;;;;22.10;19.70;;;3.90;99.90;;;;;;10460183;28;20221;-80
2022/01/13 10:50:58;;;;;;;24.57;22.03;;;3.90;99.90;;;;;;10447817;28;20270;-79
2022/01/13 10:56:05;;;;;;;22.80;20.10;;;4.00;99.90;;;;;;10474453;28;20212;-80
2022/01/13 11:01:10;;;;;;;21.93;19.27;;;4.10;99.90;;;;;;10495627;28;20219;-79
2022/01/13 11:06:13;;;;;;;22.17;19.90;;;4.10;99.90;;;;;;10477724;28;20259;-79
2022/01/13 11:11:19;;;;;;;21.97;19.87;;;4.20;99.90;;;;;;10473327;28;20220;-79
2022/01/13 11:16:22;;;;;;;21.13;19.00;;;4.30;99.90;;;;;;10460551;28;20262;-80
2022/01/13 11:21:26;;;;;;;20.67;18.57;;;4.40;99.90;;;;;;10487822;28;20699;-79
2022/01/13 11:26:30;;;;;;;22.03;19.10;;;4.40;99.90;;;;;;10472299;28;20635;-79
2022/01/13 11:31:33;;;;;;;21.13;19.00;;;4.40;99.90;;;;;;10455789;28;20219;-79
2022/01/13 11:36:37;;;;;;;22.40;18.70;;;4.40;99.90;;;;;;10472580;28;20267;-79
2022/01/13 11:42:02;;;;;;;21.60;18.20;;;4.50;99.90;;;;;;10439530;28;20195;-82
2022/01/13 11:47:17;;;;;;;23.10;19.93;;;4.60;99.90;;;;;;10469255;28;20263;-82
2022/01/13 11:52:39;;;;;;;22.43;19.90;;;4.60;99.90;;;;;;10468616;28;20228;-82
2022/01/13 11:57:43;;;;;;;25.50;21.73;;;4.70;99.90;;;;;;10465345;28;20213;-81
2022/01/13 12:02:46;;;;;;;23.47;20.80;;;4.70;99.90;;;;;;10450743;28;20193;-80
2022/01/13 12:07:50;;;;;;;23.33;20.83;;;4.80;99.90;;;;;;10462460;28;20599;-80
2022/01/13 12:12:55;;;;;;;22.57;20.27;;;4.80;99.90;;;;;;10479510;28;20585;-81
2022/01/13 12:17:59;;;;;;;21.63;18.90;;;4.90;99.90;;;;;;10461052;28;20205;-81
2022/01/13 12:23:14;;;;;;;22.83;20.53;;;4.90;99.90;;;;;;10449088;28;20197;-81
2022/01/13 12:28:19;;;;;;;23.13;20.67;;;5.00;99.90;;;;;;10446194;28;20212;-82
2022/01/13 12:33:31;;;;;;;21.43;19.23;;;5.00;99.90;;;;;;10440364;28;20220;-84
2022/01/13 12:38:33;;;;;;;21.00;19.00;;;5.10;99.90;;;;;;10439799;28;20621;-82
2022/01/13 12:44:01;;;;;;;18.37;16.43;;;5.10;99.90;;;;;;10458438;28;20193;-79
2022/01/13 12:49:03;;;;;;;20.23;18.07;;;5.10;99.90;;;;;;10444284;28;20307;-79
2022/01/13 12:54:05;;;;;;;19.83;17.80;;;5.20;99.90;;;;;;10462368;28;20207;-84
2022/01/13 12:59:11;;;;;;;20.00;18.00;;;5.20;99.90;;;;;;10443612;28;20247;-83
2022/01/13 13:04:15;;;;;;;18.77;16.77;;;5.30;99.90;;;;;;10442988;28;20196;-84
2022/01/13 13:09:20;;;;;;;17.93;16.00;;;5.40;99.90;;;;;;10455537;28;20232;-84
2022/01/13 13:14:33;;;;;;;19.13;16.77;;;5.40;99.90;;;;;;10460641;28;20196;-82
2022/01/13 13:19:39;;;;;;;18.97;16.97;;;5.50;99.90;;;;;;10426734;28;20665;-84
2022/01/13 13:24:42;;;;;;;16.53;14.90;;;5.50;99.90;;;;;;10483576;28;20224;-83
2022/01/13 13:29:52;;;;;;;17.60;15.50;;;5.50;99.90;;;;;;10464574;28;20318;-84
2022/01/13 13:34:54;;;;;;;20.33;16.63;;;5.60;99.90;;;;;;10442029;28;20292;-84
2022/01/13 13:39:56;;;;;;;18.27;16.37;;;5.60;99.90;;;;;;10449868;28;20201;-83
2022/01/13 13:45:10;;;;;;;19.03;15.40;;;5.60;99.90;;;;;;10461573;28;20213;-84
2022/01/13 13:50:12;;;;;;;18.03;15.93;;;5.60;99.90;;;;;;10447512;28;20213;-84
2022/01/13 13:55:14;;;;;;;19.53;16.17;;;5.70;99.90;;;;;;10440579;28;20221;-82
2022/01/13 14:00:20;;;;;;;20.53;16.40;;;5.70;99.90;;;;;;10469049;28;20566;-83
2022/01/13 14:05:26;;;;;;;18.10;15.63;;;5.70;99.90;;;;;;10462047;28;20229;-81
2022/01/13 14:10:29;;;;;;;18.17;15.00;;;5.70;99.90;;;;;;10473158;28;20350;-84
2022/01/13 14:15:33;;;;;;;17.20;14.23;;;5.70;99.90;;;;;;10480968;28;20243;-81
2022/01/13 14:20:37;;;;;;;16.77;14.93;;;5.60;99.90;;;;;;10476903;28;20197;-82
2022/01/13 14:25:42;;;;;;;14.27;12.87;;;5.50;99.90;;;;;;10438193;28;20688;-82
2022/01/13 14:30:46;;;;;;;15.37;13.70;;;5.50;99.90;;;;;;10429574;28;20315;-82
2022/01/13 14:36:00;;;;;;;14.47;12.83;;;5.50;99.90;;;;;;10468315;28;20259;-81
2022/01/13 14:41:02;;;;;;;15.43;12.20;;;5.50;99.90;;;;;;10463583;28;20185;-81
2022/01/13 14:46:08;;;;;;;15.30;13.70;;;5.40;99.90;;;;;;10471873;28;20216;-81
2022/01/13 14:51:13;;;;;;;16.40;13.70;;;5.40;99.90;;;;;;10461624;28;20216;-81
2022/01/13 14:56:16;;;;;;;14.63;13.13;;;5.40;99.90;;;;;;10505568;28;20295;-82
2022/01/13 15:01:21;;;;;;;15.87;13.80;;;5.30;99.90;;;;;;10463651;28;20189;-81
2022/01/13 15:06:23;;;;;;;16.60;13.97;;;5.30;99.90;;;;;;10470593;28;20216;-82
2022/01/13 15:11:25;;;;;;;15.13;13.63;;;5.30;99.90;;;;;;10488230;28;20216;-82
2022/01/13 15:16:29;;;;;;;15.53;13.93;;;5.30;99.90;;;;;;10481192;28;20668;-80
2022/01/13 15:21:32;;;;;;;21.20;15.20;;;5.30;99.90;;;;;;10470468;28;20193;-80
2022/01/13 15:26:34;;;;;;;16.97;14.63;;;5.20;99.90;;;;;;10446180;28;20583;-81
2022/01/13 15:31:37;;;;;;;21.23;17.43;;;5.20;99.90;;;;;;10468003;28;20274;-80
2022/01/13 15:36:40;;;;;;;21.03;17.43;;;5.10;99.90;;;;;;10468295;28;20749;-81
2022/01/13 15:41:42;;;;;;;21.00;18.17;;;5.10;99.90;;;;;;10479353;28;20552;-81
2022/01/13 15:46:46;;;;;;;20.17;17.67;;;5.00;99.90;;;;;;10483226;28;20714;-80
2022/01/13 15:51:48;;;;;;;20.57;18.10;;;5.00;99.90;;;;;;10483776;28;20216;-81
2022/01/13 15:56:51;;;;;;;22.80;19.20;;;4.80;99.90;;;;;;10463513;28;20219;-81
2022/01/13 16:01:55;;;;;;;19.63;17.53;;;4.70;99.90;;;;;;10481894;28;20612;-81
2022/01/13 16:07:01;;;;;;;26.00;21.33;;;4.60;99.90;;;;;;10484525;28;20251;-80
2022/01/13 16:12:04;;;;;;;29.03;22.93;;;4.50;99.90;;;;;;10463448;28;20215;-81
2022/01/13 16:17:26;;;;;;;29.60;23.70;;;4.50;99.90;;;;;;10481016;28;20778;-80
2022/01/13 16:22:29;;;;;;;23.07;20.47;;;4.40;99.90;;;;;;10463449;28;20287;-78
2022/01/13 16:27:31;;;;;;;22.60;20.20;;;4.20;99.90;;;;;;10466732;28;20220;-79
2022/01/13 16:32:36;;;;;;;22.07;19.60;;;4.20;99.90;;;;;;10503755;28;20300;-80
2022/01/13 16:37:41;;;;;;;27.77;22.23;;;4.20;99.90;;;;;;10479677;28;20844;-80
2022/01/13 16:42:45;;;;;;;24.73;20.23;;;4.10;99.90;;;;;;10464397;28;20197;-80
2022/01/13 16:47:50;;;;;;;20.33;18.10;;;4.10;99.90;;;;;;10461686;28;20484;-78
2022/01/13 16:52:53;;;;;;;23.70;19.37;;;3.90;99.90;;;;;;10473449;28;20231;-78
2022/01/13 16:57:56;;;;;;;22.90;19.43;;;3.90;99.90;;;;;;10462311;28;20340;-81
2022/01/13 17:02:59;;;;;;;23.13;20.50;;;3.90;99.90;;;;;;10446693;28;20192;-81
2022/01/13 17:08:07;;;;;;;24.00;21.10;;;3.90;99.90;;;;;;10479230;28;20217;-81
2022/01/13 17:13:11;;;;;;;22.40;19.20;;;3.90;99.90;;;;;;10462829;28;20196;-81
2022/01/13 17:18:14;;;;;;;21.40;19.10;;;3.80;99.90;;;;;;10480284;28;20259;-80
2022/01/13 17:23:16;;;;;;;25.03;20.07;;;3.80;99.90;;;;;;10474536;28;20239;-82
2022/01/13 17:28:19;;;;;;;22.47;19.30;;;3.70;99.90;;;;;;10481586;28;20599;-81
2022/01/13 17:33:22;;;;;;;21.70;19.50;;;3.70;99.90;;;;;;10454735;28;20199;-82
2022/01/13 17:38:24;;;;;;;23.67;21.13;;;3.70;99.90;;;;;;10491174;28;20306;-81
2022/01/13 17:43:28;;;;;;;24.40;21.77;;;3.70;99.90;;;;;;10472029;28;20204;-81
2022/01/13 17:48:32;;;;;;;25.87;23.07;;;3.70;99.90;;;;;;10468488;28;20216;-80
2022/01/13 17:53:34;;;;;;;23.50;21.00;;;3.70;99.90;;;;;;10475687;28;20231;-79
2022/01/13 17:58:36;;;;;;;26.23;22.90;;;3.60;99.90;;;;;;10472794;28;20225;-80
2022/01/13 18:03:40;;;;;;;29.23;22.43;;;3.60;99.90;;;;;;10452373;28;20201;-82
2022/01/13 18:08:42;;;;;;;29.40;25.00;;;3.50;99.90;;;;;;10475144;28;20212;-80
2022/01/13 18:13:44;;;;;;;28.60;23.63;;;3.60;99.90;;;;;;10492857;28;20194;-80
2022/01/13 18:18:48;;;;;;;22.90;20.10;;;3.60;99.90;;;;;;10470917;28;20219;-79
2022/01/13 18:23:50;;;;;;;26.10;22.13;;;3.60;99.90;;;;;;10489924;28;20204;-79
2022/01/13 18:28:52;;;;;;;30.13;24.93;;;3.70;99.90;;;;;;10493395;28;20209;-79
2022/01/13 18:33:56;;;;;;;29.23;22.80;;;3.70;99.90;;;;;;10492879;28;20196;-78
2022/01/13 18:38:58;;;;;;;26.30;23.10;;;3.70;99.90;;;;;;10458330;28;20299;-82
2022/01/13 18:44:03;;;;;;;30.83;24.93;;;3.70;99.90;;;;;;10442843;28;20204;-78
2022/01/13 18:49:07;;;;;;;28.83;24.20;;;3.70;99.90;;;;;;10455279;28;20216;-81
2022/01/13 18:54:09;;;;;;;28.10;23.57;;;3.70;99.90;;;;;;10477717;23;20546;-79
2022/01/13 18:59:12;;;;;;;33.70;25.73;;;3.70;99.90;;;;;;10496192;28;20200;-79
2022/01/13 19:04:18;;;;;;;35.40;27.57;;;3.70;99.90;;;;;;10498604;28;20215;-77
2022/01/13 19:09:20;;;;;;;30.60;24.60;;;3.70;99.90;;;;;;10498979;28;20201;-79
2022/01/13 19:14:23;;;;;;;26.13;20.23;;;3.70;99.90;;;;;;10498923;28;20226;-77
2022/01/13 19:19:32;;;;;;;29.33;21.97;;;3.70;99.90;;;;;;10497711;28;20181;-77
2022/01/13 19:24:34;;;;;;;27.80;22.87;;;3.70;99.90;;;;;;10457076;28;20216;-78
2022/01/13 19:29:36;;;;;;;24.10;20.70;;;3.60;99.90;;;;;;10456558;28;20653;-78
2022/01/13 19:34:40;;;;;;;23.47;20.90;;;3.60;99.90;;;;;;10471819;28;20752;-78
2022/01/13 19:39:46;;;;;;;26.47;22.17;;;3.60;99.90;;;;;;10471925;28;20246;-77
2022/01/13 19:44:48;;;;;;;25.37;21.87;;;3.60;99.90;;;;;;10456351;28;20311;-78
2022/01/13 19:49:51;;;;;;;24.37;21.77;;;3.60;99.90;;;;;;10455571;28;20224;-76
2022/01/13 19:54:53;;;;;;;26.40;22.13;;;3.60;99.90;;;;;;10457129;28;20692;-77
2022/01/13 19:59:56;;;;;;;26.33;21.27;;;3.50;99.90;;;;;;10454228;28;20200;-77
2022/01/13 20:05:00;;;;;;;25.40;22.27;;;3.50;99.90;;;;;;10454219;28;20236;-78
2022/01/13 20:10:02;;;;;;;26.97;22.47;;;3.50;99.90;;;;;;10453463;28;20217;-77
2022/01/13 20:15:05;;;;;;;29.43;25.13;;;3.60;99.90;;;;;;10453458;28;20241;-77
2022/01/13 20:20:10;;;;;;;27.80;24.70;;;3.60;99.90;;;;;;10454138;28;20197;-77
2022/01/13 20:25:12;;;;;;;25.33;22.63;;;3.60;99.90;;;;;;10454717;28;20217;-78
2022/01/13 20:30:16;;;;;;;25.57;22.80;;;3.50;99.90;;;;;;10453068;28;20216;-78
2022/01/13 20:35:19;;;;;;;27.10;23.87;;;3.50;99.90;;;;;;10453630;28;20613;-78
2022/01/13 20:40:22;;;;;;;31.30;25.97;;;3.50;99.90;;;;;;10452647;28;20284;-77
2022/01/13 20:45:24;;;;;;;28.17;24.07;;;3.50;99.90;;;;;;10453202;28;20204;-77
2022/01/13 20:50:28;;;;;;;26.53;22.60;;;3.50;99.90;;;;;;10453390;28;20236;-78
2022/01/13 20:55:31;;;;;;;27.43;21.20;;;3.50;99.90;;;;;;10453057;28;20251;-77
2022/01/13 21:00:33;;;;;;;23.13;20.70;;;3.50;99.90;;;;;;10460872;28;20221;-78
2022/01/13 21:05:37;;;;;;;28.17;20.50;;;3.40;99.90;;;;;;10454181;28;20296;-79
2022/01/13 21:10:39;;;;;;;23.87;20.50;;;3.40;99.90;;;;;;10456212;28;20224;-78
2022/01/13 21:15:42;;;;;;;27.10;20.93;;;3.40;99.90;;;;;;10452489;28;20208;-77
2022/01/13 21:20:45;;;;;;;28.77;21.73;;;3.40;99.90;;;;;;10452322;28;20217;-77
2022/01/13 21:25:48;;;;;;;28.17;23.10;;;3.50;99.90;;;;;;10452512;28;20197;-78
2022/01/13 21:30:56;;;;;;;25.50;21.80;;;3.40;99.90;;;;;;10452748;28;20220;-78
2022/01/13 21:36:00;;;;;;;23.67;20.00;;;3.40;99.90;;;;;;10458822;28;20209;-78
2022/01/13 21:41:04;;;;;;;24.03;21.43;;;3.30;99.90;;;;;;10454565;28;20252;-78
2022/01/13 21:46:07;;;;;;;24.33;21.70;;;3.30;99.90;;;;;;10454701;28;20238;-78
2022/01/13 21:51:10;;;;;;;23.47;20.37;;;3.30;99.90;;;;;;10456772;28;20273;-78
2022/01/13 21:56:13;;;;;;;24.07;19.90;;;3.20;99.90;;;;;;10455171;28;20209;-78
2022/01/13 22:01:15;;;;;;;23.17;20.07;;;3.30;99.90;;;;;;10453633;28;20210;-78
2022/01/13 22:06:20;;;;;;;24.47;21.27;;;3.20;99.90;;;;;;10454567;28;20226;-78
2022/01/13 22:11:24;;;;;;;24.07;21.57;;;3.20;99.90;;;;;;10469946;28;20274;-78
2022/01/13 22:16:26;;;;;;;24.27;20.70;;;3.20;99.90;;;;;;10458381;28;20189;-77
2022/01/13 22:21:32;;;;;;;28.57;22.63;;;3.20;99.90;;;;;;10459622;28;20217;-77
2022/01/13 22:26:34;;;;;;;22.50;20.10;;;3.20;99.90;;;;;;10459181;28;20646;-77
2022/01/13 22:31:36;;;;;;;22.27;19.27;;;3.20;99.90;;;;;;10459199;28;20295;-78
2022/01/13 22:36:39;;;;;;;21.83;19.03;;;3.20;99.90;;;;;;10459776;28;20194;-78
2022/01/13 22:41:43;;;;;;;23.00;19.20;;;3.20;99.90;;;;;;10458322;28;20227;-77
2022/01/13 22:46:48;;;;;;;22.60;18.50;;;3.10;99.90;;;;;;10458638;28;20632;-77
2022/01/13 22:51:51;;;;;;;22.57;19.63;;;3.10;99.90;;;;;;10458465;28;20222;-77
2022/01/13 22:56:53;;;;;;;21.37;18.80;;;3.00;99.90;;;;;;10456908;28;20248;-76
2022/01/13 23:01:55;;;;;;;25.40;19.50;;;3.00;99.90;;;;;;10456717;28;20233;-76
2022/01/13 23:06:59;;;;;;;24.57;21.90;;;3.00;99.90;;;;;;10472503;28;20185;-77
2022/01/13 23:12:02;;;;;;;24.70;19.30;;;3.00;99.90;;;;;;10457435;28;20213;-77
2022/01/13 23:22:26;;;;;;;25.60;21.47;;;3.00;99.90;;;;;;10457041;28;20669;-76
2022/01/13 23:27:28;;;;;;;22.53;20.23;;;2.90;99.90;;;;;;10456348;28;20649;-76
2022/01/13 23:32:30;;;;;;;23.50;20.53;;;3.00;99.90;;;;;;10456717;28;20300;-78
2022/01/13 23:37:33;;;;;;;24.63;21.63;;;2.90;99.90;;;;;;10455246;28;20200;-77
2022/01/13 23:42:39;;;;;;;28.33;22.03;;;2.90;99.90;;;;;;10456545;28;20224;-77
2022/01/13 23:47:41;;;;;;;25.77;20.77;;;2.90;99.90;;;;;;10471942;28;20202;-78
2022/01/13 23:52:45;;;;;;;29.80;21.80;;;2.90;99.90;;;;;;10455982;28;20704;-78
2022/01/13 23:57:47;;;;;;;26.53;20.47;;;2.90;99.90;;;;;;10457056;28;20221;-78
